Time;durP1;ratioP1;P1;durP2;ratioP2;P2;SDS_P1;SDS_P2;PMS_P1;PMS_P2;Temp;Humidity;BMP_temperature;BMP_pressure;BME280_temperature;BME280_humidity;BME280_pressure;Samples;Min_cycle;Max_cycle;Signal;HPM_P1;HPM_P2
2022/10/20 00:02:13;;;;;;;5.30;2.47;;;6.80;99.90;;;;;;5077788;28;20432;-81
2022/10/20 00:04:39;;;;;;;4.90;2.72;;;7.40;99.90;;;;;;5058665;28;20120;-81
2022/10/20 00:07:05;;;;;;;7.20;3.15;;;6.60;99.90;;;;;;5095329;28;20043;-83
2022/10/20 00:09:31;;;;;;;8.15;3.05;;;6.50;99.90;;;;;;5078345;28;20050;-84
2022/10/20 00:11:56;;;;;;;7.25;2.65;;;6.50;99.90;;;;;;5094854;28;20394;-84
2022/10/20 00:14:22;;;;;;;8.00;2.67;;;6.70;99.90;;;;;;5094306;28;20044;-84
2022/10/20 00:16:47;;;;;;;4.88;2.40;;;6.30;99.90;;;;;;5061350;28;20131;-84
2022/10/20 00:19:13;;;;;;;4.38;2.45;;;6.20;99.90;;;;;;5094687;28;20492;-83
2022/10/20 00:21:39;;;;;;;6.07;3.22;;;6.20;99.90;;;;;;5077580;28;20040;-83
2022/10/20 00:24:05;;;;;;;9.25;2.83;;;6.10;99.90;;;;;;5094377;28;20113;-81
2022/10/20 00:26:31;;;;;;;4.00;2.40;;;6.00;99.90;;;;;;5094242;28;20047;-81
2022/10/20 00:28:57;;;;;;;5.47;3.15;;;6.10;99.90;;;;;;5094149;28;20052;-81
2022/10/20 00:31:24;;;;;;;5.05;2.47;;;;;;;;;;5077633;28;20482;-81
2022/10/20 00:33:50;;;;;;;5.25;2.83;;;5.90;99.90;;;;;;5093779;28;20040;-81
2022/10/20 00:36:17;;;;;;;4.68;2.83;;;6.00;99.90;;;;;;5094050;28;20038;-81
2022/10/20 00:38:44;;;;;;;6.57;3.03;;;6.80;99.90;;;;;;5094383;28;20040;-81
2022/10/20 00:41:16;;;;;;;9.20;3.45;;;5.90;99.90;;;;;;5077484;28;20081;-81
2022/10/20 00:43:58;;;;;;;6.22;3.00;;;5.90;99.90;;;;;;5094066;28;20506;-81
2022/10/20 00:46:40;;;;;;;9.23;3.08;;;5.80;99.90;;;;;;5057197;28;20063;-80
2022/10/20 00:49:25;;;;;;;6.53;3.00;;;5.80;99.90;;;;;;5075495;28;20048;-81
2022/10/20 00:51:52;;;;;;;7.22;3.13;;;6.10;99.90;;;;;;5093985;28;20044;-81
2022/10/20 00:54:22;;;;;;;3.80;2.70;;;5.90;99.90;;;;;;5076505;28;20036;-80
2022/10/20 00:56:49;;;;;;;5.25;3.10;;;5.80;99.90;;;;;;5094025;28;20032;-80
2022/10/20 00:59:18;;;;;;;5.65;3.05;;;5.70;99.90;;;;;;5093745;28;20040;-80
2022/10/20 01:01:45;;;;;;;6.80;3.13;;;5.60;99.90;;;;;;5093554;28;20489;-80
2022/10/20 01:04:11;;;;;;;7.72;2.72;;;5.70;99.90;;;;;;5093569;28;20570;-81
2022/10/20 01:06:36;;;;;;;7.50;2.85;;;5.90;99.90;;;;;;5076145;28;20072;-81
2022/10/20 01:09:03;;;;;;;5.35;2.95;;;6.60;99.90;;;;;;5093504;28;20075;-81
2022/10/20 01:11:31;;;;;;;7.03;2.75;;;5.60;99.90;;;;;;5093663;28;20035;-81
2022/10/20 01:14:12;;;;;;;5.50;3.20;;;5.70;99.90;;;;;;5093421;28;20134;-81
2022/10/20 01:17:01;;;;;;;7.18;3.75;;;5.50;99.90;;;;;;5076209;28;20040;-81
2022/10/20 01:20:12;;;;;;;4.35;2.85;;;5.50;99.90;;;;;;5073437;28;20036;-81
2022/10/20 01:23:08;;;;;;;5.13;2.85;;;5.50;99.90;;;;;;5084960;28;20055;-81
2022/10/20 01:26:00;;;;;;;6.22;3.45;;;5.50;99.90;;;;;;5093498;28;20097;-81
2022/10/20 01:28:50;;;;;;;9.00;3.30;;;5.60;99.90;;;;;;5088200;28;20507;-81
2022/10/20 01:31:36;;;;;;;5.55;2.78;;;5.50;99.90;;;;;;5093354;28;20048;-84
2022/10/20 01:34:20;;;;;;;8.65;3.13;;;5.60;99.90;;;;;;5089273;28;20043;-83
2022/10/20 01:36:56;;;;;;;4.68;2.92;;;5.60;99.90;;;;;;5072712;28;20532;-83
2022/10/20 01:39:35;;;;;;;5.15;3.00;;;5.60;99.90;;;;;;5073390;28;20352;-84
2022/10/20 01:42:14;;;;;;;7.82;3.40;;;5.60;99.90;;;;;;5080162;22;20036;-81
2022/10/20 01:44:42;;;;;;;6.45;3.00;;;5.60;99.90;;;;;;5071942;28;20076;-81
2022/10/20 01:47:09;;;;;;;6.75;3.35;;;5.60;99.90;;;;;;5073059;28;20514;-81
2022/10/20 01:49:35;;;;;;;10.95;3.08;;;5.50;99.90;;;;;;5056046;28;20041;-81
2022/10/20 01:52:01;;;;;;;5.97;2.50;;;5.60;99.90;;;;;;5072621;28;20087;-81
2022/10/20 01:54:29;;;;;;;6.25;3.42;;;6.60;99.90;;;;;;5072130;28;20068;-81
2022/10/20 01:57:25;;;;;;;5.80;3.13;;;6.00;99.90;;;;;;5055717;28;20123;-81
2022/10/20 02:00:07;;;;;;;5.32;2.88;;;5.50;99.90;;;;;;5055278;28;20506;-80
2022/10/20 02:03:25;;;;;;;6.00;2.50;;;5.50;99.90;;;;;;5072504;28;20043;-80
2022/10/20 02:06:23;;;;;;;7.63;3.00;;;5.40;99.90;;;;;;5052854;28;20045;-84
2022/10/20 02:08:52;;;;;;;9.18;3.00;;;5.50;99.90;;;;;;5052716;28;20083;-84
2022/10/20 02:11:44;;;;;;;6.47;3.05;;;6.20;99.90;;;;;;5035898;28;20043;-84
2022/10/20 02:14:13;;;;;;;5.05;2.67;;;5.40;99.90;;;;;;5059099;28;20037;-84
2022/10/20 02:16:44;;;;;;;6.63;3.40;;;5.40;99.90;;;;;;5072311;28;20040;-84
2022/10/20 02:19:13;;;;;;;8.88;3.50;;;5.50;99.90;;;;;;5072636;28;20437;-84
2022/10/20 02:21:38;;;;;;;10.05;3.17;;;5.50;99.90;;;;;;5055438;28;20094;-84
2022/10/20 02:24:06;;;;;;;6.93;2.92;;;6.40;99.90;;;;;;5071667;28;20439;-84
2022/10/20 02:26:34;;;;;;;7.45;3.35;;;5.50;99.90;;;;;;5052247;28;20076;-84
2022/10/20 02:29:08;;;;;;;6.30;3.05;;;5.50;99.90;;;;;;5035638;28;20068;-84
2022/10/20 02:31:34;;;;;;;6.18;2.78;;;5.60;99.90;;;;;;5052130;28;20047;-84
2022/10/20 02:34:00;;;;;;;6.25;2.90;;;5.50;99.90;;;;;;5035617;28;20037;-84
2022/10/20 02:36:28;;;;;;;9.40;3.55;;;5.70;99.90;;;;;;5055499;28;20063;-81
2022/10/20 02:38:54;;;;;;;5.90;3.08;;;5.50;99.90;;;;;;5055213;28;20449;-81
2022/10/20 02:41:20;;;;;;;9.38;3.53;;;5.60;99.90;;;;;;5071818;28;20036;-81
2022/10/20 02:43:46;;;;;;;7.20;2.90;;;5.50;99.90;;;;;;5055302;28;20140;-81
2022/10/20 02:46:12;;;;;;;11.02;3.15;;;5.50;99.90;;;;;;5071451;28;20044;-81
2022/10/20 02:48:38;;;;;;;5.43;3.33;;;5.50;99.90;;;;;;5055144;28;20102;-81
2022/10/20 02:51:05;;;;;;;7.13;2.80;;;5.50;99.90;;;;;;5055175;28;20404;-81
2022/10/20 02:53:32;;;;;;;6.20;3.47;;;5.50;99.90;;;;;;5055421;28;20037;-81
2022/10/20 02:55:58;;;;;;;9.05;2.78;;;6.70;99.90;;;;;;5055012;28;20049;-81
2022/10/20 02:58:24;;;;;;;7.43;3.10;;;5.50;99.90;;;;;;5071733;28;20385;-80
2022/10/20 03:00:50;;;;;;;9.50;4.45;;;5.40;99.90;;;;;;5071546;28;20043;-81
2022/10/20 03:03:17;;;;;;;5.15;2.70;;;5.50;99.90;;;;;;5038538;28;20041;-81
2022/10/20 03:05:44;;;;;;;7.40;3.22;;;6.10;99.90;;;;;;5071565;28;20109;-81
2022/10/20 03:08:11;;;;;;;7.88;3.40;;;5.40;99.90;;;;;;5055163;28;20443;-81
2022/10/20 03:10:37;;;;;;;8.27;3.30;;;5.40;99.90;;;;;;5071656;28;20044;-81
2022/10/20 03:13:05;;;;;;;5.28;3.20;;;5.40;99.90;;;;;;5075181;28;20487;-81
2022/10/20 03:15:30;;;;;;;6.70;3.00;;;5.60;99.90;;;;;;5058892;28;20048;-81
2022/10/20 03:17:56;;;;;;;11.55;3.85;;;5.50;99.90;;;;;;5058548;28;20040;-81
2022/10/20 03:20:22;;;;;;;8.98;3.45;;;5.60;99.90;;;;;;5058464;28;20041;-81
2022/10/20 03:22:48;;;;;;;6.05;3.13;;;5.50;99.90;;;;;;5075439;28;20041;-81
2022/10/20 03:25:14;;;;;;;6.43;3.10;;;5.50;99.90;;;;;;5075307;28;20499;-81
2022/10/20 03:27:39;;;;;;;5.60;3.33;;;5.60;99.90;;;;;;5074830;28;20039;-84
2022/10/20 03:30:05;;;;;;;8.48;3.47;;;5.50;99.90;;;;;;5075241;28;20045;-84
2022/10/20 03:32:31;;;;;;;10.13;3.20;;;5.60;99.90;;;;;;5058400;28;20088;-84
2022/10/20 03:34:57;;;;;;;5.55;2.90;;;5.60;99.90;;;;;;5075029;28;20044;-83
2022/10/20 03:37:23;;;;;;;6.07;3.50;;;5.70;99.90;;;;;;5038194;28;20577;-84
2022/10/20 03:39:48;;;;;;;5.53;2.90;;;5.60;99.90;;;;;;5055057;28;20044;-84
2022/10/20 03:42:14;;;;;;;8.13;3.20;;;5.60;99.90;;;;;;5055056;28;20049;-83
2022/10/20 03:44:40;;;;;;;6.20;3.25;;;5.60;99.90;;;;;;5038400;28;20041;-81
2022/10/20 03:47:06;;;;;;;7.60;3.65;;;5.70;99.90;;;;;;5041052;28;20040;-81
2022/10/20 03:49:32;;;;;;;7.95;3.33;;;6.20;99.90;;;;;;5057995;28;20043;-81
2022/10/20 03:51:59;;;;;;;8.55;3.47;;;5.70;99.90;;;;;;5074959;28;20044;-81
2022/10/20 03:54:24;;;;;;;5.85;3.28;;;5.60;99.90;;;;;;5074569;28;20040;-81
2022/10/20 03:56:50;;;;;;;10.32;3.95;;;5.60;99.90;;;;;;5057938;28;20044;-81
2022/10/20 03:59:15;;;;;;;10.38;3.47;;;5.70;99.90;;;;;;5074184;28;20040;-81
2022/10/20 04:01:45;;;;;;;6.68;3.20;;;5.60;99.90;;;;;;5075006;28;20520;-84
2022/10/20 04:04:11;;;;;;;8.43;3.90;;;5.60;99.90;;;;;;5038092;28;20040;-84
2022/10/20 04:06:37;;;;;;;6.35;3.38;;;5.60;99.90;;;;;;5038428;28;20045;-84
2022/10/20 04:09:03;;;;;;;9.68;4.03;;;6.00;99.90;;;;;;5064035;28;20368;-84
2022/10/20 04:11:30;;;;;;;6.38;3.38;;;5.60;99.90;;;;;;5070409;28;20044;-83
2022/10/20 04:13:56;;;;;;;8.32;3.20;;;5.60;99.90;;;;;;5057560;28;20041;-84
2022/10/20 04:16:23;;;;;;;5.88;3.20;;;5.70;99.90;;;;;;5057929;28;20036;-84
2022/10/20 04:18:50;;;;;;;10.55;3.90;;;5.70;99.90;;;;;;5074152;28;20071;-84
2022/10/20 04:21:16;;;;;;;13.75;4.18;;;5.70;99.90;;;;;;5041423;28;20394;-84
2022/10/20 04:23:41;;;;;;;8.40;3.40;;;5.70;99.90;;;;;;5057466;28;20037;-84
2022/10/20 04:26:09;;;;;;;8.55;3.67;;;5.70;99.90;;;;;;5057433;28;20036;-84
2022/10/20 04:28:35;;;;;;;8.45;3.58;;;5.70;99.90;;;;;;5073553;28;20123;-84
2022/10/20 04:31:00;;;;;;;10.77;3.92;;;5.70;99.90;;;;;;5073675;28;20123;-83
2022/10/20 04:33:26;;;;;;;6.20;3.85;;;5.60;99.90;;;;;;5074218;28;20040;-81
2022/10/20 04:36:00;;;;;;;8.98;4.30;;;5.60;99.90;;;;;;5057204;28;20128;-81
2022/10/20 04:38:28;;;;;;;11.50;3.55;;;5.90;99.90;;;;;;5057190;28;20041;-80
2022/10/20 04:40:58;;;;;;;6.95;3.42;;;5.60;99.90;;;;;;5053847;28;20048;-80
2022/10/20 04:43:24;;;;;;;11.32;4.07;;;5.50;99.90;;;;;;5053652;28;20136;-81
2022/10/20 04:45:52;;;;;;;10.25;3.58;;;6.80;99.90;;;;;;5053713;28;20044;-80
2022/10/20 04:48:18;;;;;;;7.18;4.00;;;5.70;99.90;;;;;;5063109;28;20044;-80
2022/10/20 04:50:44;;;;;;;8.52;4.38;;;5.60;99.90;;;;;;5070536;28;20181;-81
2022/10/20 04:53:10;;;;;;;7.47;3.70;;;5.60;99.90;;;;;;5056460;28;20051;-81
2022/10/20 04:55:36;;;;;;;7.28;3.60;;;5.70;99.90;;;;;;5073011;28;20063;-81
2022/10/20 04:58:02;;;;;;;8.88;3.83;;;5.60;99.90;;;;;;5072915;28;20045;-80
2022/10/20 05:00:28;;;;;;;6.78;3.55;;;5.60;99.90;;;;;;5056388;28;20489;-80
2022/10/20 05:02:54;;;;;;;8.20;3.53;;;5.50;99.90;;;;;;5073492;28;20040;-80
2022/10/20 05:05:20;;;;;;;7.57;3.58;;;5.50;99.90;;;;;;5073310;28;20048;-80
2022/10/20 05:07:46;;;;;;;8.23;4.47;;;5.50;99.90;;;;;;5056597;28;20102;-80
2022/10/20 05:10:11;;;;;;;7.63;4.13;;;5.40;99.90;;;;;;5072911;28;20482;-80
2022/10/20 05:12:37;;;;;;;10.77;4.85;;;5.60;99.90;;;;;;5056750;28;20051;-81
2022/10/20 05:15:03;;;;;;;9.05;4.68;;;5.50;99.90;;;;;;5056219;28;20078;-81
2022/10/20 05:17:29;;;;;;;7.50;4.30;;;5.50;99.90;;;;;;5073272;28;20044;-81
2022/10/20 05:19:55;;;;;;;9.43;4.30;;;5.50;99.90;;;;;;5056361;28;20054;-81
2022/10/20 05:22:21;;;;;;;8.77;4.38;;;5.50;99.90;;;;;;5055984;28;20037;-80
2022/10/20 05:24:47;;;;;;;10.38;4.35;;;5.70;99.90;;;;;;5056807;28;20102;-83
2022/10/20 05:27:12;;;;;;;10.45;5.10;;;6.40;99.90;;;;;;5073393;28;20040;-83
2022/10/20 05:29:38;;;;;;;8.10;4.45;;;5.50;99.90;;;;;;5072984;28;20482;-83
2022/10/20 05:32:04;;;;;;;9.80;4.55;;;5.50;99.90;;;;;;5055823;28;20063;-83
2022/10/20 05:34:29;;;;;;;9.23;5.38;;;6.60;99.90;;;;;;5055405;28;20040;-83
2022/10/20 05:36:55;;;;;;;12.18;4.18;;;5.60;99.90;;;;;;5056005;28;20114;-83
2022/10/20 05:39:21;;;;;;;9.07;4.45;;;5.50;99.90;;;;;;5056536;28;20040;-83
2022/10/20 05:41:47;;;;;;;11.25;5.00;;;5.70;99.90;;;;;;5052896;28;20037;-81
2022/10/20 05:44:15;;;;;;;10.90;5.05;;;5.50;99.90;;;;;;5052464;28;20059;-81
2022/10/20 05:46:41;;;;;;;8.02;4.32;;;5.60;99.90;;;;;;5035944;28;20052;-80
2022/10/20 05:49:12;;;;;;;9.20;4.93;;;5.60;99.90;;;;;;5037582;28;20102;-80
2022/10/20 05:51:38;;;;;;;12.57;4.70;;;6.20;99.90;;;;;;5055425;28;20550;-81
2022/10/20 05:54:04;;;;;;;8.10;5.30;;;5.70;99.90;;;;;;5072729;28;20116;-80
2022/10/20 05:56:30;;;;;;;10.65;4.70;;;5.70;99.90;;;;;;5072438;28;20044;-80
2022/10/20 05:58:57;;;;;;;16.85;5.40;;;5.70;99.90;;;;;;5072551;28;20036;-81
2022/10/20 06:01:37;;;;;;;8.15;5.03;;;5.70;99.90;;;;;;5055512;28;20044;-81
2022/10/20 06:04:03;;;;;;;9.50;5.28;;;5.90;99.90;;;;;;5072310;28;20441;-81
2022/10/20 06:06:30;;;;;;;9.40;5.32;;;5.80;99.90;;;;;;5055781;28;20048;-81
2022/10/20 06:08:58;;;;;;;8.32;5.03;;;5.80;99.90;;;;;;5072261;28;20123;-81
2022/10/20 06:11:24;;;;;;;10.15;5.22;;;5.70;99.90;;;;;;5072165;28;20040;-80
2022/10/20 06:13:51;;;;;;;11.82;5.38;;;5.80;99.90;;;;;;5071801;28;20048;-81
2022/10/20 06:16:22;;;;;;;10.80;5.43;;;5.70;99.90;;;;;;5072141;28;20173;-81
2022/10/20 06:18:48;;;;;;;9.60;5.85;;;5.80;99.90;;;;;;5055553;28;20186;-83
2022/10/20 06:21:16;;;;;;;12.88;5.65;;;5.90;99.90;;;;;;5072012;28;20094;-81
2022/10/20 06:23:42;;;;;;;10.27;5.28;;;5.90;99.90;;;;;;5055162;28;20048;-81
2022/10/20 06:26:17;;;;;;;10.48;4.82;;;5.90;99.90;;;;;;5055650;28;20053;-81
2022/10/20 06:28:43;;;;;;;12.23;6.10;;;6.00;99.90;;;;;;5072066;28;20036;-81
2022/10/20 06:31:15;;;;;;;9.95;5.25;;;6.00;99.90;;;;;;5055255;28;20032;-81
2022/10/20 06:33:42;;;;;;;11.38;5.10;;;6.30;99.90;;;;;;5071883;28;20048;-80
2022/10/20 06:36:08;;;;;;;9.48;5.53;;;6.10;99.90;;;;;;5055138;28;20051;-80
2022/10/20 06:38:35;;;;;;;9.35;5.25;;;6.90;99.90;;;;;;5055166;28;20115;-80
2022/10/20 06:41:01;;;;;;;14.32;5.32;;;6.20;99.90;;;;;;5071976;28;20079;-80
2022/10/20 06:43:27;;;;;;;9.30;5.82;;;6.20;99.90;;;;;;5071709;28;20376;-80
2022/10/20 06:45:58;;;;;;;11.38;5.53;;;6.30;99.90;;;;;;5074353;28;20052;-80
2022/10/20 06:48:24;;;;;;;9.57;5.32;;;6.30;99.90;;;;;;5076153;28;20512;-84
2022/10/20 06:50:58;;;;;;;14.13;5.78;;;6.40;99.90;;;;;;5075777;28;20040;-84
2022/10/20 06:53:25;;;;;;;11.82;6.38;;;6.40;99.90;;;;;;5058755;28;20071;-84
2022/10/20 06:55:59;;;;;;;11.35;5.63;;;6.50;99.90;;;;;;5074736;28;20032;-84
2022/10/20 06:58:25;;;;;;;12.55;6.35;;;6.50;99.90;;;;;;5075758;28;20037;-84
2022/10/20 07:01:05;;;;;;;10.32;6.38;;;6.60;99.90;;;;;;5076012;28;20110;-83
2022/10/20 07:03:33;;;;;;;9.60;5.47;;;6.60;99.90;;;;;;5059281;28;20392;-81
2022/10/20 07:05:59;;;;;;;11.90;5.85;;;6.70;99.90;;;;;;5074703;28;20048;-81
2022/10/20 07:08:30;;;;;;;10.35;5.85;;;7.30;99.90;;;;;;5058479;28;20052;-81
2022/10/20 07:11:11;;;;;;;9.73;5.70;;;6.90;99.90;;;;;;5058326;28;20037;-81
2022/10/20 07:13:37;;;;;;;12.77;5.75;;;6.80;99.90;;;;;;5058750;28;20075;-81
2022/10/20 07:16:04;;;;;;;12.90;6.80;;;6.80;99.90;;;;;;5075053;28;20041;-81
2022/10/20 07:18:31;;;;;;;10.40;6.00;;;6.80;99.90;;;;;;5058956;28;20044;-81
2022/10/20 07:20:59;;;;;;;10.65;5.63;;;6.80;99.90;;;;;;5058476;28;20039;-83
2022/10/20 07:23:26;;;;;;;10.57;6.43;;;6.90;99.90;;;;;;5075238;28;20037;-84
2022/10/20 07:25:59;;;;;;;11.30;5.80;;;6.90;99.90;;;;;;5074734;28;20037;-81
2022/10/20 07:28:24;;;;;;;10.50;6.22;;;6.90;99.90;;;;;;5074809;28;20119;-81
2022/10/20 07:30:50;;;;;;;8.98;5.00;;;6.90;99.90;;;;;;5074713;28;20198;-81
2022/10/20 07:33:16;;;;;;;13.95;6.05;;;7.80;99.90;;;;;;5058467;28;20048;-81
2022/10/20 07:35:41;;;;;;;11.13;6.18;;;7.00;99.90;;;;;;5074626;28;20376;-81
2022/10/20 07:38:07;;;;;;;12.90;5.70;;;7.40;99.90;;;;;;5058681;28;20129;-81
2022/10/20 07:40:33;;;;;;;12.07;6.18;;;7.10;99.90;;;;;;5058145;28;20036;-81
2022/10/20 07:42:59;;;;;;;8.65;4.95;;;7.20;99.90;;;;;;5058125;28;20056;-81
2022/10/20 07:45:24;;;;;;;10.13;5.82;;;7.30;99.90;;;;;;5057993;28;20556;-81
2022/10/20 07:47:50;;;;;;;11.98;5.72;;;7.40;99.90;;;;;;5058133;28;20044;-81
2022/10/20 07:50:17;;;;;;;10.85;6.00;;;7.70;99.90;;;;;;5058001;28;20087;-81
2022/10/20 07:52:43;;;;;;;9.68;5.43;;;7.80;99.90;;;;;;5074681;28;20048;-81
2022/10/20 07:55:09;;;;;;;12.27;5.45;;;8.20;99.90;;;;;;5075037;28;20051;-81
2022/10/20 07:57:35;;;;;;;11.65;5.43;;;8.20;99.90;;;;;;5026272;28;20041;-81
2022/10/20 08:00:01;;;;;;;17.38;5.82;;;8.30;99.90;;;;;;5038083;28;20068;-81
2022/10/20 08:02:26;;;;;;;9.98;5.43;;;8.40;99.90;;;;;;5050550;28;20032;-81
2022/10/20 08:04:52;;;;;;;10.15;5.78;;;8.50;99.90;;;;;;5057898;28;20037;-81
2022/10/20 08:07:17;;;;;;;11.05;6.15;;;8.60;99.90;;;;;;5042621;28;20112;-81
2022/10/20 08:09:44;;;;;;;10.90;5.28;;;8.80;99.90;;;;;;5057764;28;20511;-81
2022/10/20 08:12:10;;;;;;;12.05;5.75;;;8.80;99.90;;;;;;5074854;28;20505;-80
2022/10/20 08:14:36;;;;;;;9.88;5.28;;;9.30;99.90;;;;;;5041778;28;20037;-81
2022/10/20 08:17:03;;;;;;;8.10;4.72;;;8.90;99.90;;;;;;5057530;28;20403;-81
2022/10/20 08:19:29;;;;;;;8.35;4.95;;;9.00;99.90;;;;;;5074571;28;20079;-81
2022/10/20 08:21:55;;;;;;;9.48;4.72;;;9.00;99.90;;;;;;5074462;28;20040;-81
2022/10/20 08:24:21;;;;;;;7.75;5.20;;;9.00;99.90;;;;;;5075148;28;20044;-81
2022/10/20 08:26:47;;;;;;;7.82;4.35;;;8.90;99.90;;;;;;5061958;28;20048;-84
2022/10/20 08:29:13;;;;;;;8.43;5.13;;;9.00;99.90;;;;;;5074501;28;20041;-84
2022/10/20 08:31:39;;;;;;;12.05;5.95;;;9.30;99.90;;;;;;5057742;28;20045;-84
2022/10/20 08:34:05;;;;;;;8.05;4.13;;;9.10;99.90;;;;;;5057478;28;20040;-84
2022/10/20 08:36:30;;;;;;;9.15;5.30;;;9.20;99.90;;;;;;5074147;28;20375;-84
2022/10/20 08:38:59;;;;;;;7.68;4.78;;;9.30;99.90;;;;;;5057433;28;20032;-84
2022/10/20 08:41:32;;;;;;;8.63;4.80;;;9.40;99.90;;;;;;5057914;28;20041;-84
2022/10/20 08:43:59;;;;;;;11.27;5.28;;;9.70;99.90;;;;;;5074226;28;20114;-81
2022/10/20 08:46:32;;;;;;;7.90;4.78;;;10.00;99.90;;;;;;5074707;28;20044;-81
2022/10/20 08:48:58;;;;;;;10.00;4.63;;;10.40;99.90;;;;;;5074197;28;20044;-81
2022/10/20 08:51:30;;;;;;;7.07;4.20;;;10.80;99.90;;;;;;5073784;28;20560;-81
2022/10/20 08:53:58;;;;;;;8.63;4.65;;;11.50;99.90;;;;;;5057692;28;20075;-81
2022/10/20 08:56:27;;;;;;;6.40;4.07;;;11.90;99.90;;;;;;5057350;28;20032;-82
2022/10/20 08:58:53;;;;;;;6.70;4.00;;;12.40;99.90;;;;;;5073700;28;20032;-82
2022/10/20 09:01:21;;;;;;;6.88;3.72;;;12.50;99.90;;;;;;5073858;28;20090;-81
2022/10/20 09:04:19;;;;;;;9.40;4.85;;;13.00;99.90;;;;;;5057209;28;20036;-81
2022/10/20 09:06:50;;;;;;;12.43;4.95;;;13.00;99.90;;;;;;5056171;28;20044;-81
2022/10/20 09:09:19;;;;;;;8.00;4.43;;;12.50;99.90;;;;;;5074059;28;20044;-81
2022/10/20 09:11:46;;;;;;;7.28;4.13;;;12.20;99.90;;;;;;5057002;28;20044;-81
2022/10/20 09:14:13;;;;;;;6.68;4.35;;;11.90;99.90;;;;;;5040561;28;20047;-81
2022/10/20 09:16:41;;;;;;;6.70;3.90;;;11.70;99.90;;;;;;5073878;28;20079;-84
2022/10/20 09:19:16;;;;;;;8.93;4.38;;;11.80;99.90;;;;;;5056948;28;20371;-85
2022/10/20 09:21:45;;;;;;;7.15;4.00;;;11.90;99.90;;;;;;5073742;28;20072;-83
2022/10/20 09:24:11;;;;;;;6.88;3.83;;;12.30;99.90;;;;;;5073424;28;20085;-84
2022/10/20 09:26:47;;;;;;;5.97;3.78;;;12.70;99.90;;;;;;5024439;28;20040;-85
2022/10/20 09:29:13;;;;;;;5.72;3.85;;;12.60;99.90;;;;;;5056699;28;20486;-84
2022/10/20 09:31:52;;;;;;;7.85;4.05;;;12.30;99.90;;;;;;5073546;28;20067;-85
2022/10/20 09:34:32;;;;;;;5.93;3.78;;;12.10;99.90;;;;;;5073141;28;20120;-82
2022/10/20 09:37:09;;;;;;;7.65;3.70;;;11.90;99.90;;;;;;5073265;28;20036;-81
2022/10/20 09:39:53;;;;;;;8.07;4.00;;;11.90;99.90;;;;;;5073151;28;20041;-82
2022/10/20 09:42:21;;;;;;;7.38;3.70;;;11.80;99.90;;;;;;5067901;28;20056;-82
2022/10/20 09:45:06;;;;;;;6.50;3.45;;;12.50;99.90;;;;;;5056572;28;20484;-81
2022/10/20 09:47:34;;;;;;;7.75;3.90;;;11.60;99.90;;;;;;5073179;28;20398;-82
2022/10/20 09:50:03;;;;;;;8.30;4.38;;;11.70;99.90;;;;;;5073282;28;20048;-82
2022/10/20 09:52:39;;;;;;;7.63;4.28;;;11.80;99.90;;;;;;5072524;28;20040;-82
2022/10/20 09:55:28;;;;;;;6.57;4.22;;;12.10;99.90;;;;;;5072929;28;20119;-82
2022/10/20 09:57:56;;;;;;;7.10;3.67;;;12.40;99.90;;;;;;5056953;28;20029;-81
2022/10/20 10:00:34;;;;;;;7.28;3.83;;;12.60;99.90;;;;;;5056970;28;20472;-81
2022/10/20 10:03:21;;;;;;;7.50;4.13;;;13.20;99.90;;;;;;5072948;28;20048;-81
2022/10/20 10:05:58;;;;;;;7.38;3.70;;;14.40;99.90;;;;;;5073025;28;20066;-82
2022/10/20 10:08:40;;;;;;;6.57;3.53;;;14.90;99.90;;;;;;5052610;28;20451;-82
2022/10/20 10:11:16;;;;;;;4.82;3.20;;;15.20;99.90;;;;;;5050424;28;20048;-82
2022/10/20 10:13:48;;;;;;;8.50;3.55;;;15.30;99.90;;;;;;5056007;28;20048;-82
2022/10/20 10:16:19;;;;;;;9.45;3.17;;;15.90;99.90;;;;;;5072718;28;20048;-82
2022/10/20 10:19:01;;;;;;;7.03;3.25;;;16.00;99.90;;;;;;5056127;28;20040;-82
2022/10/20 10:21:42;;;;;;;5.75;3.25;;;15.90;99.90;;;;;;5072294;28;20087;-82
2022/10/20 10:24:24;;;;;;;5.63;3.25;;;16.40;99.90;;;;;;5072775;28;20510;-85
2022/10/20 10:26:54;;;;;;;4.43;2.80;;;16.30;99.90;;;;;;5072814;28;20423;-85
2022/10/20 10:29:32;;;;;;;5.28;3.58;;;16.10;99.90;;;;;;5072249;28;20044;-85
2022/10/20 10:32:16;;;;;;;5.82;3.20;;;15.90;99.90;;;;;;5068112;28;20093;-85
2022/10/20 10:35:00;;;;;;;5.43;3.35;;;15.70;99.90;;;;;;5072302;28;20545;-85
2022/10/20 10:37:27;;;;;;;4.60;2.85;;;15.90;99.90;;;;;;5072518;28;20401;-85
2022/10/20 10:39:53;;;;;;;6.60;3.58;;;16.20;99.90;;;;;;5072324;28;20041;-82
2022/10/20 10:42:42;;;;;;;5.00;2.97;;;16.00;99.90;;;;;;5055643;28;20043;-82
2022/10/20 10:45:45;;;;;;;5.60;3.03;;;15.70;99.90;;;;;;5052087;28;20144;-82
2022/10/20 10:48:23;;;;;;;5.45;3.30;;;15.50;99.90;;;;;;5069314;28;20404;-82
2022/10/20 10:50:55;;;;;;;5.68;3.13;;;15.30;99.90;;;;;;5067319;28;20037;-82
2022/10/20 10:53:49;;;;;;;5.53;3.13;;;15.30;99.90;;;;;;5046046;28;20079;-82
2022/10/20 10:56:42;;;;;;;5.95;3.33;;;15.50;99.90;;;;;;5070665;28;20055;-82
2022/10/20 10:59:16;;;;;;;5.18;2.97;;;15.20;99.90;;;;;;5055061;28;20040;-82
2022/10/20 11:01:54;;;;;;;6.10;3.45;;;;;;;;;;5054939;28;20037;-82
2022/10/20 11:04:39;;;;;;;7.70;3.17;;;;;;;;;;5069948;28;20465;-82
2022/10/20 11:07:11;;;;;;;5.75;3.08;;;;;;;;;;5054847;28;20486;-82
2022/10/20 11:09:49;;;;;;;4.60;2.83;;;;;;;;;;5071250;28;20040;-82
2022/10/20 11:12:28;;;;;;;5.78;3.17;;;;;;;;;;5071560;28;20048;-82
2022/10/20 11:15:07;;;;;;;7.85;3.30;;;;;;;;;;5071038;28;20134;-82
2022/10/20 11:17:48;;;;;;;4.80;2.88;;;;;;;;;;5071884;28;20390;-82
2022/10/20 11:20:14;;;;;;;6.50;3.78;;;;;;;;;;5055486;28;20115;-82
2022/10/20 11:22:53;;;;;;;5.93;3.53;;;;;;;;;;5071953;28;20044;-82
2022/10/20 11:25:32;;;;;;;5.93;3.65;;;15.00;99.90;;;;;;5072057;28;20460;-82
2022/10/20 11:27:58;;;;;;;7.50;3.53;;;14.90;99.90;;;;;;5071678;28;20449;-82
2022/10/20 11:30:26;;;;;;;7.38;3.83;;;14.80;99.90;;;;;;5055312;28;20089;-82
2022/10/20 11:33:04;;;;;;;6.53;3.70;;;14.80;99.90;;;;;;5057119;28;20101;-82
2022/10/20 11:35:50;;;;;;;6.65;4.00;;;14.40;99.90;;;;;;5058817;28;20033;-82
2022/10/20 11:38:31;;;;;;;4.60;3.20;;;14.20;99.90;;;;;;5055677;28;20049;-82
2022/10/20 11:41:21;;;;;;;6.07;3.97;;;14.10;99.90;;;;;;5058129;28;20471;-82
2022/10/20 11:44:12;;;;;;;7.28;4.43;;;14.10;99.90;;;;;;5075649;28;20442;-82
2022/10/20 11:46:46;;;;;;;6.90;4.20;;;13.80;99.90;;;;;;5075230;28;20044;-82
2022/10/20 11:49:12;;;;;;;5.53;3.60;;;13.80;99.90;;;;;;5075829;28;20401;-82
2022/10/20 11:52:11;;;;;;;10.07;4.15;;;13.80;99.90;;;;;;5075186;28;20040;-82
2022/10/20 11:55:00;;;;;;;9.85;4.43;;;14.10;99.90;;;;;;5074884;28;20036;-82
2022/10/20 11:58:10;;;;;;;7.70;4.30;;;13.60;99.90;;;;;;5074954;28;20509;-82
2022/10/20 12:00:53;;;;;;;9.07;4.25;;;13.50;99.90;;;;;;5017653;28;20042;-82
2022/10/20 12:03:44;;;;;;;6.00;4.03;;;13.50;99.90;;;;;;5018128;28;20060;-82
2022/10/20 12:06:30;;;;;;;10.05;4.10;;;13.40;99.90;;;;;;5047439;28;20566;-82
2022/10/20 12:09:15;;;;;;;;;;;13.30;99.90;;;;;;5057394;28;20481;-82
2022/10/20 12:12:01;;;;;;;6.93;4.10;;;13.30;99.90;;;;;;5057608;28;19916;-82
2022/10/20 12:14:38;;;;;;;7.93;4.15;;;13.20;99.90;;;;;;5058011;28;20048;-81
2022/10/20 12:17:27;;;;;;;6.32;3.42;;;13.10;99.90;;;;;;5074312;28;20040;-82
2022/10/20 12:20:18;;;;;;;7.68;3.90;;;13.10;99.90;;;;;;5069058;28;20050;-82
2022/10/20 12:22:45;;;;;;;9.80;4.45;;;13.00;99.90;;;;;;5054999;28;20466;-82
2022/10/20 12:25:23;;;;;;;10.07;4.47;;;13.00;99.90;;;;;;5055708;28;20044;-82
2022/10/20 12:28:23;;;;;;;10.70;4.63;;;12.90;99.90;;;;;;5058128;28;20462;-82
2022/10/20 12:30:54;;;;;;;8.80;4.28;;;12.90;99.90;;;;;;5074743;28;20483;-82
2022/10/20 12:33:38;;;;;;;11.25;4.85;;;12.90;99.90;;;;;;5073604;28;20466;-82
2022/10/20 12:36:26;;;;;;;7.68;4.55;;;12.70;99.90;;;;;;5063719;28;20517;-81
2022/10/20 12:39:15;;;;;;;6.10;3.67;;;12.60;99.90;;;;;;5057285;28;20115;-80
2022/10/20 12:42:00;;;;;;;6.53;4.00;;;12.50;99.90;;;;;;5071529;28;20048;-81
2022/10/20 12:44:31;;;;;;;8.63;5.35;;;12.50;99.90;;;;;;5057020;28;20055;-81
2022/10/20 12:47:05;;;;;;;10.57;5.60;;;12.40;99.90;;;;;;5074933;28;20044;-81
2022/10/20 12:49:38;;;;;;;13.20;5.45;;;12.30;99.90;;;;;;5074133;28;20376;-81
2022/10/20 12:52:07;;;;;;;10.30;5.35;;;12.30;99.90;;;;;;5074190;28;20502;-81
2022/10/20 12:54:41;;;;;;;11.68;5.80;;;12.30;99.90;;;;;;5073743;28;20052;-82
2022/10/20 12:57:40;;;;;;;7.95;5.30;;;12.20;99.90;;;;;;5073382;28;20397;-82
2022/10/20 13:00:25;;;;;;;10.70;5.45;;;12.20;99.90;;;;;;5072862;28;20076;-82
2022/10/20 13:02:57;;;;;;;11.98;5.65;;;12.10;99.90;;;;;;5056599;28;20041;-82
2022/10/20 13:05:45;;;;;;;8.27;4.80;;;12.10;99.90;;;;;;5054501;28;20043;-82
2022/10/20 13:08:19;;;;;;;11.60;5.65;;;12.00;99.90;;;;;;5071875;28;20105;-82
2022/10/20 13:10:46;;;;;;;10.13;5.78;;;12.00;99.90;;;;;;5056085;28;20036;-82
2022/10/20 13:13:12;;;;;;;14.45;5.60;;;11.90;99.90;;;;;;5073879;28;20097;-81
2022/10/20 13:15:42;;;;;;;9.82;4.63;;;11.90;99.90;;;;;;5073274;28;20436;-81
2022/10/20 13:18:11;;;;;;;10.25;5.50;;;11.90;99.90;;;;;;5072615;28;20048;-81
2022/10/20 13:21:00;;;;;;;10.77;4.90;;;11.90;99.90;;;;;;5072875;28;20102;-81